createdAt,value
2018-06-01T00:00:17.501Z,5.00
2018-06-01T00:02:46.390Z,5.23
2018-06-01T00:05:15.590Z,4.50
2018-06-01T00:07:44.482Z,4.97
2018-06-01T00:10:13.367Z,4.13
2018-06-01T00:12:42.368Z,5.27
2018-06-01T00:15:11.387Z,4.57
2018-06-01T00:17:40.140Z,5.67
2018-06-01T00:20:09.341Z,6.07
2018-06-01T00:22:38.537Z,5.30
2018-06-01T00:25:07.499Z,6.10
2018-06-01T00:27:36.517Z,8.23
2018-06-01T00:30:05.614Z,5.03
2018-06-01T00:32:34.836Z,6.70
2018-06-01T00:35:03.805Z,6.50
2018-06-01T00:37:32.777Z,5.07
2018-06-01T00:40:01.892Z,4.93
2018-06-01T00:42:30.883Z,4.93
2018-06-01T00:44:59.771Z,4.97
2018-06-01T00:47:28.741Z,4.43
2018-06-01T00:49:57.764Z,4.97
2018-06-01T00:52:26.898Z,4.57
2018-06-01T00:55:07.721Z,4.80
2018-06-01T00:57:36.728Z,5.63
2018-06-01T01:00:05.602Z,5.20
2018-06-01T01:02:34.521Z,5.00
2018-06-01T01:05:03.760Z,5.23
2018-06-01T01:07:32.886Z,4.97
2018-06-01T01:10:01.983Z,4.93
2018-06-01T01:12:30.874Z,4.97
2018-06-01T01:14:59.762Z,8.20
2018-06-01T01:17:28.752Z,7.30
2018-06-01T01:19:58.107Z,5.33
2018-06-01T01:22:27.127Z,12.50
2018-06-01T01:24:56.066Z,7.10
2018-06-01T01:27:25.235Z,4.90
2018-06-01T01:29:54.329Z,14.83
2018-06-01T01:32:23.323Z,7.20
2018-06-01T01:34:52.085Z,13.07
2018-06-01T01:37:35.031Z,13.83
2018-06-01T01:40:03.918Z,6.13
2018-06-01T01:42:32.864Z,7.90
2018-06-01T01:45:01.797Z,5.20
2018-06-01T01:47:31.011Z,6.03
2018-06-01T01:50:00.193Z,6.30
2018-06-01T01:52:29.194Z,5.33
2018-06-01T01:54:58.180Z,5.37
2018-06-01T01:57:27.180Z,5.13
2018-06-01T01:59:56.861Z,5.30
2018-06-01T02:02:25.666Z,5.30
2018-06-01T02:04:54.582Z,4.73
2018-06-01T02:07:23.704Z,4.77
2018-06-01T02:09:52.539Z,4.60
2018-06-01T02:12:21.635Z,4.53
2018-06-01T02:14:50.625Z,4.90
2018-06-01T02:17:20.438Z,6.10
2018-06-01T02:20:06.750Z,4.33
2018-06-01T02:22:41.667Z,4.67
2018-06-01T02:25:10.721Z,5.03
2018-06-01T02:27:39.551Z,5.50
2018-06-01T02:30:08.340Z,5.10
2018-06-01T02:32:37.125Z,7.33
2018-06-01T02:35:06.028Z,5.20
2018-06-01T02:37:34.882Z,4.97
2018-06-01T02:40:03.972Z,5.17
2018-06-01T02:42:32.787Z,4.83
2018-06-01T02:45:01.756Z,4.40
2018-06-01T02:47:31.078Z,4.67
2018-06-01T02:49:59.968Z,6.47
2018-06-01T02:52:29.165Z,5.00
2018-06-01T02:54:57.861Z,5.33
2018-06-01T02:57:26.842Z,4.97
2018-06-01T02:59:55.734Z,4.50
2018-06-01T03:02:24.435Z,4.83
2018-06-01T03:04:53.466Z,5.20
2018-06-01T03:07:22.401Z,5.27
2018-06-01T03:09:51.527Z,4.90
2018-06-01T03:12:20.815Z,4.37
2018-06-01T03:14:49.788Z,4.70
2018-06-01T03:17:18.785Z,35.67
2018-06-01T03:19:47.586Z,9.40
2018-06-01T03:22:16.356Z,5.43
2018-06-01T03:24:45.451Z,5.10
2018-06-01T03:27:14.338Z,4.30
2018-06-01T03:29:43.513Z,3.90
2018-06-01T03:32:12.550Z,4.90
2018-06-01T03:34:41.495Z,4.83
2018-06-01T03:37:10.310Z,6.37
2018-06-01T03:39:39.406Z,4.70
2018-06-01T03:42:08.395Z,4.67
2018-06-01T03:44:37.499Z,5.13
2018-06-01T03:47:06.278Z,5.10
2018-06-01T03:49:35.072Z,7.63
2018-06-01T03:52:04.160Z,6.00
2018-06-01T03:54:33.256Z,4.47
2018-06-01T03:57:02.344Z,5.07
2018-06-01T03:59:31.140Z,5.10
2018-06-01T04:02:00.080Z,4.77
2018-06-01T04:04:28.915Z,4.70
2018-06-01T04:06:57.876Z,4.63
2018-06-01T04:09:28.642Z,4.67
2018-06-01T04:11:57.754Z,4.70
2018-06-01T04:14:26.733Z,5.10
2018-06-01T04:16:55.721Z,4.77
2018-06-01T04:19:24.975Z,5.97
2018-06-01T04:21:54.012Z,6.30
2018-06-01T04:24:23.012Z,4.60
2018-06-01T04:26:51.898Z,5.47
2018-06-01T04:29:21.169Z,4.93
2018-06-01T04:31:49.982Z,5.37
2018-06-01T04:34:18.877Z,4.77
2018-06-01T04:36:47.693Z,4.70
2018-06-01T04:39:16.958Z,5.30
2018-06-01T04:41:45.701Z,5.67
2018-06-01T04:44:14.641Z,4.77
2018-06-01T04:46:43.588Z,5.67
2018-06-01T04:49:12.659Z,4.63
2018-06-01T04:51:42.739Z,5.07
2018-06-01T04:54:11.887Z,4.67
2018-06-01T04:56:40.942Z,5.20
2018-06-01T04:59:09.713Z,5.47
2018-06-01T05:01:38.695Z,5.47
2018-06-01T05:04:07.494Z,5.73
2018-06-01T05:06:36.447Z,5.17
2018-06-01T05:09:06.465Z,5.60
2018-06-01T05:11:35.291Z,8.37
2018-06-01T05:14:04.488Z,9.23
2018-06-01T05:16:33.828Z,7.70
2018-06-01T05:19:02.898Z,5.23
2018-06-01T05:21:31.884Z,5.13
2018-06-01T05:24:01.070Z,5.00
2018-06-01T05:26:30.069Z,5.30
2018-06-01T05:28:58.959Z,4.60
2018-06-01T05:31:28.154Z,5.80
2018-06-01T05:33:57.058Z,6.67
2018-06-01T05:36:25.949Z,5.40
2018-06-01T05:38:54.894Z,4.87
2018-06-01T05:41:23.812Z,5.00
2018-06-01T05:43:52.700Z,4.70
2018-06-01T05:46:21.694Z,4.70
2018-06-01T05:48:51.063Z,4.63
2018-06-01T05:51:21.118Z,5.00
2018-06-01T05:53:50.270Z,4.73
2018-06-01T05:56:19.504Z,4.73
2018-06-01T05:58:48.498Z,4.27
2018-06-01T06:01:17.501Z,5.07
2018-06-01T06:03:46.174Z,4.40
2018-06-01T06:06:15.372Z,5.83
2018-06-01T06:08:44.348Z,5.00
2018-06-01T06:11:13.150Z,5.00
2018-06-01T06:13:42.307Z,5.20
2018-06-01T06:16:11.443Z,4.60
2018-06-01T06:18:40.434Z,5.10
2018-06-01T06:21:09.643Z,5.37
2018-06-01T06:23:38.421Z,5.50
2018-06-01T06:26:07.411Z,5.53
2018-06-01T06:28:36.608Z,4.93
2018-06-01T06:31:05.499Z,4.97
2018-06-01T06:33:34.798Z,5.00
2018-06-01T06:36:03.861Z,5.23
2018-06-01T06:38:32.699Z,5.13
2018-06-01T06:41:02.545Z,5.43
2018-06-01T06:43:31.496Z,5.63
2018-06-01T06:46:00.481Z,4.83
2018-06-01T06:48:29.364Z,6.17
2018-06-01T06:50:59.089Z,5.30
2018-06-01T06:53:28.488Z,4.97
2018-06-01T06:55:57.883Z,6.00
2018-06-01T06:58:27.133Z,5.47
2018-06-01T07:00:56.168Z,6.03
2018-06-01T07:03:24.967Z,5.40
2018-06-01T07:05:54.051Z,5.17
2018-06-01T07:08:23.046Z,4.93
2018-06-01T07:10:51.933Z,5.47
2018-06-01T07:13:20.795Z,5.23
2018-06-01T07:15:50.020Z,6.10
2018-06-01T07:18:19.217Z,4.83
2018-06-01T07:20:48.211Z,4.80
2018-06-01T07:23:17.206Z,5.17
2018-06-01T07:25:46.195Z,4.57
2018-06-01T07:28:15.188Z,5.03
2018-06-01T07:30:44.282Z,4.53
2018-06-01T07:33:13.282Z,4.70
2018-06-01T07:35:42.096Z,4.57
2018-06-01T07:38:10.814Z,4.30
2018-06-01T07:40:39.829Z,5.30
2018-06-01T07:43:09.652Z,5.20
2018-06-01T07:45:38.644Z,4.27
2018-06-01T07:48:07.432Z,4.00
2018-06-01T07:50:36.526Z,4.00
2018-06-01T07:53:05.417Z,4.00
2018-06-01T07:55:34.316Z,4.20
2018-06-01T07:58:03.199Z,4.93
2018-06-01T08:00:32.394Z,5.00
2018-06-01T08:03:01.594Z,4.30
2018-06-01T08:05:31.005Z,4.70
2018-06-01T08:08:00.085Z,4.40
2018-06-01T08:10:28.873Z,4.43
2018-06-01T08:12:57.970Z,4.53
2018-06-01T08:15:26.652Z,4.40
2018-06-01T08:17:55.545Z,4.37
2018-06-01T08:20:24.484Z,4.20
2018-06-01T08:22:53.426Z,4.87
2018-06-01T08:25:22.313Z,4.33
2018-06-01T08:27:51.107Z,3.60
2018-06-01T08:30:20.004Z,3.97
2018-06-01T08:32:49.199Z,4.60
2018-06-01T08:35:18.155Z,4.00
2018-06-01T08:37:47.345Z,4.40
2018-06-01T08:40:16.918Z,3.73
2018-06-01T08:42:46.692Z,3.50
2018-06-01T08:45:15.686Z,3.70
2018-06-01T08:47:44.882Z,5.20
2018-06-01T08:50:14.081Z,4.63
2018-06-01T08:52:42.969Z,4.30
2018-06-01T08:55:11.761Z,3.43
2018-06-01T08:57:40.646Z,4.17
2018-06-01T09:00:09.536Z,3.63
2018-06-01T09:02:38.528Z,4.10
2018-06-01T09:05:07.624Z,4.30
2018-06-01T09:07:36.409Z,4.50
2018-06-01T09:10:05.636Z,3.97
2018-06-01T09:12:34.860Z,4.20
2018-06-01T09:15:04.111Z,4.00
2018-06-01T09:17:33.302Z,4.03
2018-06-01T09:20:02.190Z,3.70
2018-06-01T09:22:31.185Z,3.33
2018-06-01T09:24:59.971Z,3.70
2018-06-01T09:27:29.169Z,3.63
2018-06-01T09:29:58.365Z,3.40
2018-06-01T09:32:27.264Z,3.37
2018-06-01T09:34:57.464Z,2.97
2018-06-01T09:37:26.556Z,2.93
2018-06-01T09:39:55.525Z,3.40
2018-06-01T09:42:24.350Z,3.03
2018-06-01T09:44:53.138Z,2.87
2018-06-01T09:47:22.142Z,3.20
2018-06-01T09:49:50.930Z,3.20
2018-06-01T09:52:19.806Z,3.00
2018-06-01T09:54:48.798Z,2.67
2018-06-01T09:57:17.789Z,2.97
2018-06-01T09:59:46.576Z,2.37
2018-06-01T10:02:15.527Z,2.70
2018-06-01T10:04:44.461Z,2.83
2018-06-01T10:07:14.270Z,3.30
2018-06-01T10:09:43.363Z,2.90
2018-06-01T10:12:12.359Z,2.80
2018-06-01T10:14:41.248Z,2.23
2018-06-01T10:17:10.599Z,2.90
2018-06-01T10:19:39.756Z,2.30
2018-06-01T10:22:08.842Z,2.53
2018-06-01T10:24:37.732Z,3.00
2018-06-01T10:27:06.617Z,3.07
2018-06-01T10:29:35.927Z,2.50
2018-06-01T10:32:05.426Z,2.93
2018-06-01T10:34:34.529Z,2.50
2018-06-01T10:37:03.320Z,2.67
2018-06-01T10:39:32.114Z,2.70
2018-06-01T10:42:01.091Z,2.10
2018-06-01T10:44:30.406Z,2.23
2018-06-01T10:46:59.375Z,2.53
2018-06-01T10:49:28.473Z,2.10
2018-06-01T10:51:57.373Z,2.20
2018-06-01T10:54:26.361Z,2.37
2018-06-01T10:56:55.343Z,2.33
2018-06-01T10:59:24.348Z,3.00
2018-06-01T11:01:53.353Z,2.57
2018-06-01T11:04:22.277Z,2.10
2018-06-01T11:06:51.210Z,3.30
2018-06-01T11:09:20.002Z,2.40
2018-06-01T11:11:48.887Z,2.47
2018-06-01T11:14:17.880Z,2.83
2018-06-01T11:16:46.775Z,2.30
2018-06-01T11:19:15.457Z,2.20
2018-06-01T11:21:44.650Z,2.17
2018-06-01T11:24:13.951Z,2.57
2018-06-01T11:26:42.944Z,2.17
2018-06-01T11:29:11.898Z,2.50
2018-06-01T11:31:41.139Z,2.03
2018-06-01T11:34:10.124Z,2.20
2018-06-01T11:36:39.322Z,2.53
2018-06-01T11:39:08.493Z,2.37
2018-06-01T11:41:37.717Z,2.20
2018-06-01T11:44:06.575Z,1.90
2018-06-01T11:46:35.597Z,2.23
2018-06-01T11:49:04.493Z,2.27
2018-06-01T11:51:33.452Z,2.80
2018-06-01T11:54:02.467Z,3.20
2018-06-01T11:56:31.566Z,3.03
2018-06-01T11:59:01.480Z,2.83
2018-06-01T12:01:58.018Z,2.33
2018-06-01T12:04:27.741Z,2.50
2018-06-01T12:06:56.522Z,2.67
2018-06-01T12:09:25.613Z,2.50
2018-06-01T12:11:54.313Z,2.80
2018-06-01T12:14:23.392Z,2.63
2018-06-01T12:16:52.585Z,2.73
2018-06-01T12:19:21.475Z,2.60
2018-06-01T12:21:50.467Z,2.47
2018-06-01T12:24:19.358Z,2.57
2018-06-01T12:26:48.250Z,2.23
2018-06-01T12:29:17.183Z,2.50
2018-06-01T12:31:46.145Z,2.40
2018-06-01T12:34:14.967Z,2.70
2018-06-01T12:36:44.040Z,2.53
2018-06-01T12:39:14.201Z,2.33
2018-06-01T12:41:43.126Z,2.73
2018-06-01T12:44:12.014Z,3.67
2018-06-01T12:46:40.906Z,2.40
2018-06-01T12:49:09.791Z,2.60
2018-06-01T12:51:41.139Z,2.77
2018-06-01T12:54:10.035Z,3.13
2018-06-01T12:56:39.023Z,3.27
2018-06-01T12:59:07.938Z,2.13
2018-06-01T13:01:37.109Z,2.33
2018-06-01T13:04:06.205Z,2.07
2018-06-01T13:06:34.908Z,2.43
2018-06-01T13:09:08.078Z,2.30
2018-06-01T13:11:36.875Z,2.23
2018-06-01T13:14:05.987Z,2.60
2018-06-01T13:16:35.575Z,2.47
2018-06-01T13:19:04.774Z,1.97
2018-06-01T13:21:33.781Z,2.27
2018-06-01T13:24:02.963Z,2.13
2018-06-01T13:26:31.965Z,2.27
2018-06-01T13:29:02.166Z,2.30
2018-06-01T13:31:31.391Z,2.20
2018-06-01T13:34:00.358Z,1.97
2018-06-01T13:36:29.553Z,1.80
2018-06-01T13:38:58.358Z,2.30
2018-06-01T13:41:28.458Z,1.83
2018-06-01T13:43:57.246Z,1.87
2018-06-01T13:46:26.234Z,2.20
2018-06-01T13:48:55.233Z,1.80
2018-06-01T13:51:23.933Z,1.50
2018-06-01T13:53:52.909Z,1.97
2018-06-01T13:56:21.728Z,1.93
2018-06-01T13:58:50.804Z,2.20
2018-06-01T14:01:19.783Z,2.20
2018-06-01T14:03:49.490Z,1.80
2018-06-01T14:06:18.483Z,2.00
2018-06-01T14:08:47.266Z,1.97
2018-06-01T14:11:16.263Z,1.80
2018-06-01T14:13:46.519Z,1.97
2018-06-01T14:16:15.476Z,1.90
2018-06-01T14:18:44.356Z,2.20
2018-06-01T14:21:13.359Z,1.93
2018-06-01T14:23:42.145Z,1.83
2018-06-01T14:26:11.183Z,1.67
2018-06-01T14:28:40.205Z,1.60
2018-06-01T14:31:09.336Z,1.60
2018-06-01T14:33:38.430Z,1.87
2018-06-01T14:36:07.416Z,1.70
2018-06-01T14:38:36.421Z,2.33
2018-06-01T14:41:05.401Z,2.03
2018-06-01T14:43:34.305Z,1.70
2018-06-01T14:46:03.243Z,1.90
2018-06-01T14:48:32.171Z,1.50
2018-06-01T14:51:01.368Z,1.80
2018-06-01T14:53:30.259Z,1.80
2018-06-01T14:55:59.253Z,2.10
2018-06-01T14:58:28.440Z,1.90
2018-06-01T15:00:57.543Z,1.87
2018-06-01T15:03:26.332Z,1.93
2018-06-01T15:05:55.217Z,2.13
2018-06-01T15:08:24.267Z,1.63
2018-06-01T15:10:53.407Z,1.53
2018-06-01T15:13:22.388Z,1.80
2018-06-01T15:15:51.094Z,2.00
2018-06-01T15:18:20.077Z,1.60
2018-06-01T15:20:49.070Z,1.80
2018-06-01T15:23:18.273Z,1.67
2018-06-01T15:25:47.288Z,1.70
2018-06-01T15:28:16.148Z,1.60
2018-06-01T15:30:45.110Z,1.77
2018-06-01T15:33:13.928Z,2.37
2018-06-01T15:35:42.714Z,1.60
2018-06-01T15:38:11.502Z,1.50
2018-06-01T15:40:40.402Z,2.00
2018-06-01T15:43:09.392Z,1.53
2018-06-01T15:45:38.285Z,1.70
2018-06-01T15:48:07.061Z,2.10
2018-06-01T15:50:36.165Z,1.80
2018-06-01T15:53:04.870Z,1.80
2018-06-01T15:55:34.473Z,1.87
2018-06-01T15:58:03.234Z,2.00
2018-06-01T16:00:32.124Z,1.57
2018-06-01T16:03:01.444Z,1.77
2018-06-01T16:05:30.621Z,1.70
2018-06-01T16:07:59.715Z,1.80
2018-06-01T16:10:28.605Z,1.63
2018-06-01T16:12:57.601Z,2.27
2018-06-01T16:15:26.513Z,1.90
2018-06-01T16:17:55.482Z,1.60
2018-06-01T16:20:24.342Z,1.83
2018-06-01T16:22:53.489Z,2.30
2018-06-01T16:25:22.485Z,1.83
2018-06-01T16:27:51.551Z,2.57
2018-06-01T16:30:20.545Z,3.00
2018-06-01T16:32:49.535Z,2.30
2018-06-01T16:35:19.036Z,2.27
2018-06-01T16:37:47.929Z,2.10
2018-06-01T16:40:16.853Z,2.47
2018-06-01T16:42:45.815Z,2.10
2018-06-01T16:45:15.088Z,2.00
2018-06-01T16:47:43.863Z,2.17
2018-06-01T16:50:12.686Z,2.47
2018-06-01T16:52:41.575Z,2.20
2018-06-01T16:55:10.488Z,2.40
2018-06-01T16:57:39.252Z,2.40
2018-06-01T17:00:08.177Z,2.50
2018-06-01T17:02:36.934Z,2.10
2018-06-01T17:05:05.720Z,2.20
2018-06-01T17:07:35.222Z,2.30
2018-06-01T17:10:04.108Z,2.27
2018-06-01T17:12:33.335Z,2.70
2018-06-01T17:15:02.369Z,3.23
2018-06-01T17:17:31.860Z,3.87
2018-06-01T17:20:00.797Z,4.10
2018-06-01T17:22:30.948Z,3.50
2018-06-01T17:25:00.239Z,3.80
2018-06-01T17:27:29.618Z,3.50
2018-06-01T17:29:58.609Z,3.00
2018-06-01T17:32:27.499Z,3.37
2018-06-01T17:34:56.420Z,4.03
2018-06-01T17:37:25.221Z,6.43
2018-06-01T17:39:54.375Z,4.17
2018-06-01T17:42:23.998Z,4.13
2018-06-01T17:44:52.870Z,4.20
2018-06-01T17:47:21.866Z,3.93
2018-06-01T17:49:50.959Z,3.90
2018-06-01T17:52:19.869Z,4.67
2018-06-01T17:54:48.737Z,4.40
2018-06-01T17:57:17.627Z,3.17
2018-06-01T17:59:46.533Z,3.10
2018-06-01T18:02:15.399Z,3.13
2018-06-01T18:04:44.398Z,2.80
2018-06-01T18:07:13.304Z,3.90
2018-06-01T18:09:42.313Z,2.73
2018-06-01T18:12:11.282Z,2.73
2018-06-01T18:14:40.609Z,3.33
2018-06-01T18:17:09.469Z,3.47
2018-06-01T18:19:38.681Z,4.33
2018-06-01T18:22:07.650Z,3.73
2018-06-01T18:24:36.541Z,4.00
2018-06-01T18:27:05.944Z,4.20
2018-06-01T18:29:34.768Z,4.40
2018-06-01T18:32:03.621Z,4.53
2018-06-01T18:34:33.187Z,4.40
2018-06-01T18:37:02.449Z,3.60
2018-06-01T18:39:32.235Z,3.93
2018-06-01T18:42:01.027Z,4.40
2018-06-01T18:44:30.015Z,4.20
2018-06-01T18:46:59.546Z,4.40
2018-06-01T18:49:28.645Z,7.37
2018-06-01T18:51:57.810Z,4.30
2018-06-01T18:54:26.801Z,4.03
2018-06-01T18:56:55.795Z,4.40
2018-06-01T18:59:24.786Z,4.33
2018-06-01T19:01:53.749Z,3.23
2018-06-01T19:04:22.585Z,4.40
2018-06-01T19:06:51.635Z,4.80
2018-06-01T19:09:20.755Z,3.10
2018-06-01T19:11:49.650Z,3.47
2018-06-01T19:14:18.853Z,3.93
2018-06-01T19:16:47.735Z,3.87
2018-06-01T19:19:17.032Z,3.53
2018-06-01T19:21:46.130Z,3.00
2018-06-01T19:24:14.913Z,3.87
2018-06-01T19:26:44.211Z,3.97
2018-06-01T19:29:13.102Z,3.63
2018-06-01T19:31:42.094Z,4.17
2018-06-01T19:34:10.897Z,3.63
2018-06-01T19:36:40.088Z,3.97
2018-06-01T19:39:09.493Z,4.07
2018-06-01T19:41:38.347Z,4.43
2018-06-01T19:44:07.262Z,4.23
2018-06-01T19:46:36.560Z,3.63
2018-06-01T19:49:05.350Z,4.27
2018-06-01T19:51:35.160Z,4.50
2018-06-01T19:54:04.152Z,4.67
2018-06-01T19:56:33.042Z,5.47
2018-06-01T19:59:01.950Z,4.50
2018-06-01T20:01:30.924Z,5.53
2018-06-01T20:03:59.735Z,5.50
2018-06-01T20:06:28.469Z,6.00
2018-06-01T20:08:57.493Z,5.70
2018-06-01T20:11:26.177Z,5.80
2018-06-01T20:13:55.086Z,7.00
2018-06-01T20:16:23.954Z,5.10
2018-06-01T20:18:52.946Z,4.47
2018-06-01T20:21:21.920Z,4.87
2018-06-01T20:23:50.933Z,3.33
2018-06-01T20:26:19.902Z,4.07
2018-06-01T20:28:48.816Z,4.37
2018-06-01T20:31:18.624Z,5.80
2018-06-01T20:33:47.677Z,7.37
2018-06-01T20:36:16.816Z,10.10
2018-06-01T20:38:45.717Z,8.93
2018-06-01T20:41:14.607Z,8.47
2018-06-01T20:43:43.410Z,8.40
2018-06-01T20:46:13.294Z,6.90
2018-06-01T20:48:42.494Z,8.37
2018-06-01T20:51:12.201Z,7.53
2018-06-01T20:53:41.091Z,11.00
2018-06-01T20:56:09.980Z,10.10
2018-06-01T20:58:39.184Z,9.23
2018-06-01T21:01:08.272Z,9.87
2018-06-01T21:03:37.598Z,10.63
2018-06-01T21:06:06.703Z,11.03
2018-06-01T21:08:36.115Z,18.90
2018-06-01T21:11:05.470Z,17.20
2018-06-01T21:13:34.476Z,10.60
2018-06-01T21:16:03.278Z,12.30
2018-06-01T21:18:32.345Z,14.33
2018-06-01T21:21:01.234Z,11.00
2018-06-01T21:23:29.946Z,10.43
2018-06-01T21:25:58.839Z,11.87
2018-06-01T21:28:27.902Z,8.40
2018-06-01T21:30:57.529Z,11.37
2018-06-01T21:33:26.504Z,8.67
2018-06-01T21:35:55.502Z,11.67
2018-06-01T21:38:24.219Z,7.23
2018-06-01T21:40:53.091Z,8.77
2018-06-01T21:43:22.157Z,9.30
2018-06-01T21:45:50.863Z,8.63
2018-06-01T21:48:19.737Z,11.67
2018-06-01T21:50:48.730Z,8.13
2018-06-01T21:53:17.824Z,5.93
2018-06-01T21:55:49.138Z,5.40
2018-06-01T21:58:19.086Z,5.97
2018-06-01T22:00:47.773Z,7.60
2018-06-01T22:03:16.639Z,6.83
2018-06-01T22:05:46.577Z,6.90
2018-06-01T22:08:16.388Z,8.10
2018-06-01T22:10:46.097Z,5.03
2018-06-01T22:13:14.889Z,6.30
2018-06-01T22:15:44.285Z,5.03
2018-06-01T22:18:13.278Z,5.40
2018-06-01T22:20:42.268Z,7.13
2018-06-01T22:23:11.263Z,6.33
2018-06-01T22:25:40.341Z,5.90
2018-06-01T22:28:09.552Z,5.80
2018-06-01T22:30:38.648Z,6.13
2018-06-01T22:33:07.448Z,5.20
2018-06-01T22:35:36.198Z,4.63
2018-06-01T22:38:05.215Z,5.00
2018-06-01T22:40:34.104Z,5.47
2018-06-01T22:43:03.051Z,5.33
2018-06-01T22:45:32.007Z,4.80
2018-06-01T22:48:01.081Z,5.47
2018-06-01T22:50:29.870Z,4.93
2018-06-01T22:52:59.384Z,5.30
2018-06-01T22:55:28.384Z,5.13
2018-06-01T22:57:57.151Z,6.13
2018-06-01T23:00:30.967Z,7.13
2018-06-01T23:02:59.645Z,6.47
2018-06-01T23:05:28.532Z,8.83
2018-06-01T23:07:58.349Z,6.73
2018-06-01T23:10:27.298Z,5.83
2018-06-01T23:12:57.002Z,7.30
2018-06-01T23:15:26.104Z,11.97
2018-06-01T23:17:54.928Z,13.93
2018-06-01T23:20:24.943Z,8.13
2018-06-01T23:22:53.935Z,17.07
2018-06-01T23:25:30.817Z,11.47
2018-06-01T23:28:00.122Z,7.03
2018-06-01T23:30:29.214Z,6.90
2018-06-01T23:32:58.212Z,4.63
2018-06-01T23:35:27.190Z,13.63
2018-06-01T23:37:56.183Z,7.63
2018-06-01T23:40:25.002Z,5.87
2018-06-01T23:42:53.862Z,9.50
2018-06-01T23:45:22.851Z,11.50
2018-06-01T23:47:51.799Z,5.43
2018-06-01T23:50:20.634Z,5.63
2018-06-01T23:52:49.483Z,4.70
2018-06-01T23:55:18.547Z,5.10
2018-06-01T23:57:47.306Z,3.50
